FMMI/TNR METAR and TAF weather

Enter ICAO airport designator
Station Type Date Time Source
FMMI METAR 2023/02/06 00:00 UTC NOAA

FMMI 060000Z 13006KT 100V170 9999 FEW017 BKN020 18/17 Q1017 NOSIG


Station Type Date Time Source
FMMI Decoded METAR 2023/02/06 00:00 UTC NOAA

Antananarivo / Ivato, Madagascar (FMMI) 18-48S 047-29E 1276M
Feb 05, 2023 - 07:00 PM EST / 2023.02.06 0000 UTC
Wind: from the SE (130 degrees) at 7 MPH (6 KT) (direction variable):0
Visibility: greater than 7 mile(s):0
Sky conditions: mostly cloudy
Temperature: 64 F (18 C)
Dew Point: 62 F (17 C)
Relative Humidity: 93%
Pressure (altimeter): 30.03 in. Hg (1017 hPa)
ob: FMMI 060000Z 13006KT 100V170 9999 FEW017 BKN020 18/17 Q1017 NOSIG
cycle: 0

Station Type Date Time Source
FMMI TAF 2023/02/05 18:30 UTC NOAA

TAF COR FMMI 051700Z 0518/0624 14008KT 9999 FEW017CB BKN020 PROB30
TEMPO 0518/0520 4000 TSRA
BECMG 0520/0522 FEW010 BKN020 PROB30
TEMPO 0522/0603 4500 RADZ
BECMG 0609/0611 BKN020CB PROB40
TEMPO 0612/0620 VRB18KT 4000 TSRA
BECMG 0620/0622 FEW017 BKN020

Example: see airport list